Time;durP1;ratioP1;P1;durP2;ratioP2;P2;SDS_P1;SDS_P2;PMS_P1;PMS_P2;Temp;Humidity;BMP_temperature;BMP_pressure;BME280_temperature;BME280_humidity;BME280_pressure;Samples;Min_cycle;Max_cycle;Signal;HPM_P1;HPM_P2
2022/09/16 00:02:03;;;;;;;3.50;1.60;;;;;;;20.43;52.33;99278.77;116912;1188;22649;-74
2022/09/16 00:04:31;;;;;;;4.50;1.90;;;;;;;20.37;52.35;99283.98;116868;1188;22742;-74
2022/09/16 00:06:57;;;;;;;3.20;1.60;;;;;;;20.33;52.54;99281.06;116848;1185;22731;-60
2022/09/16 00:09:25;;;;;;;2.90;1.70;;;;;;;20.30;52.68;99274.71;116862;1188;23585;-60
2022/09/16 00:11:52;;;;;;;4.70;1.70;;;;;;;20.28;52.78;99275.92;116737;1189;24333;-74
2022/09/16 00:14:19;;;;;;;3.10;1.40;;;;;;;20.29;52.77;99277.05;116865;1189;24178;-60
2022/09/16 00:16:46;;;;;;;1.80;1.00;;;;;;;20.31;52.89;99283.53;116781;1188;21905;-60
2022/09/16 00:19:13;;;;;;;2.40;1.20;;;;;;;20.33;53.00;99287.65;116766;1185;23605;-74
2022/09/16 00:21:40;;;;;;;2.50;1.50;;;;;;;20.37;53.08;99288.27;116776;1186;22812;-72
2022/09/16 00:24:09;;;;;;;2.50;1.40;;;;;;;20.42;53.21;99289.02;116776;1185;22932;-74
2022/09/16 00:26:37;;;;;;;4.30;1.30;;;;;;;20.46;53.38;99284.59;116838;1186;23566;-73
2022/09/16 00:29:04;;;;;;;3.80;1.20;;;;;;;20.50;53.75;99279.35;116783;1188;21862;-74
2022/09/16 00:31:31;;;;;;;3.40;1.40;;;;;;;20.54;53.77;99279.57;116736;1189;23563;-74
2022/09/16 00:33:58;;;;;;;6.10;1.60;;;;;;;20.60;53.76;99274.02;116727;1189;23009;-73
2022/09/16 00:36:24;;;;;;;4.20;1.40;;;;;;;20.64;53.92;99267.96;116750;1184;21866;-74
2022/09/16 00:38:53;;;;;;;2.10;0.90;;;;;;;20.70;53.76;99265.26;116911;1189;23585;-59
2022/09/16 00:41:26;;;;;;;3.30;0.90;;;;;;;20.75;53.59;99272.02;116905;1189;21862;-73
2022/09/16 00:43:53;;;;;;;2.40;1.10;;;;;;;20.79;53.57;99275.30;116787;1188;21913;-73
2022/09/16 00:46:32;;;;;;;2.00;1.10;;;;;;;20.83;53.47;99275.45;116796;1189;24273;-72
2022/09/16 00:49:02;;;;;;;2.60;1.10;;;;;;;20.90;53.42;99269.76;116823;1188;21899;-73
2022/09/16 00:51:29;;;;;;;2.30;0.90;;;;;;;20.95;53.32;99269.23;116949;1185;21898;-74
2022/09/16 00:54:02;;;;;;;3.80;1.20;;;;;;;20.99;53.38;99272.47;116840;1186;22702;-60
2022/09/16 00:56:30;;;;;;;2.00;1.10;;;;;;;21.03;53.33;99272.88;116771;1189;21931;-59
2022/09/16 00:59:07;;;;;;;2.80;1.20;;;;;;;21.08;53.77;99266.66;116937;1186;21851;-60
2022/09/16 01:01:35;;;;;;;2.80;0.90;;;;;;;21.15;53.37;99267.20;116955;1188;21868;-73
2022/09/16 01:04:08;;;;;;;2.90;1.10;;;;;;;21.20;53.53;99264.52;116932;1189;21865;-59
2022/09/16 01:06:36;;;;;;;2.00;1.00;;;;;;;21.25;53.87;99258.77;116772;1188;23634;-59
2022/09/16 01:09:03;;;;;;;1.60;1.00;;;;;;;21.30;53.79;99252.86;116995;1188;21858;-73
2022/09/16 01:11:30;;;;;;;2.70;1.10;;;;;;;21.36;54.07;99248.00;116975;1188;23592;-72
2022/09/16 01:14:51;;;;;;;1.70;1.00;;;;;;;21.41;53.71;99248.86;116904;1191;21851;-72
2022/09/16 01:16:56;;;;;;;2.00;1.10;;;;;;;21.45;53.75;99249.07;116827;1185;24178;-59
2022/09/16 01:19:25;;;;;;;2.90;1.20;;;;;;;21.50;54.03;99240.85;117760;1188;22967;-74
2022/09/16 01:22:07;;;;;;;2.80;1.30;;;;;;;21.55;54.16;99237.13;116800;1186;22814;-60
2022/09/16 01:24:47;;;;;;;4.70;1.50;;;;;;;21.60;53.90;99246.19;116780;1188;21920;-74
2022/09/16 01:27:47;;;;;;;2.70;1.20;;;;;;;21.64;53.57;99243.77;116941;1186;24258;-60
2022/09/16 01:30:38;;;;;;;2.70;1.00;;;;;;;21.68;53.66;99245.60;116874;1188;22760;-60
2022/09/16 01:33:11;;;;;;;2.10;1.00;;;;;;;21.73;53.54;99246.14;116916;1184;25733;-60
2022/09/16 01:35:44;;;;;;;2.80;1.20;;;;;;;21.69;53.55;99250.36;116955;1188;22335;-71
2022/09/16 01:38:22;;;;;;;3.10;1.20;;;;;;;21.66;53.64;99248.06;116788;1189;22928;-60
2022/09/16 01:41:02;;;;;;;2.30;1.30;;;;;;;21.63;53.67;99238.27;116756;1189;22637;-74
2022/09/16 01:43:53;;;;;;;3.10;1.00;;;;;;;21.60;53.90;99235.15;116733;1186;23656;-59
2022/09/16 01:46:38;;;;;;;2.50;1.30;;;;;;;21.53;53.81;99234.74;116789;1186;22949;-67
2022/09/16 01:49:39;;;;;;;2.50;1.10;;;;;;;21.46;53.89;99234.00;116828;1188;22932;-73
2022/09/16 01:52:06;;;;;;;2.90;1.20;;;;;;;21.42;54.26;99238.47;116925;1185;23621;-59
2022/09/16 01:54:38;;;;;;;2.20;1.20;;;;;;;21.37;54.61;99239.34;116907;1188;23458;-73
2022/09/16 01:57:10;;;;;;;1.90;0.90;;;;;;;21.35;54.37;99240.94;116761;1190;23560;-73
2022/09/16 01:59:42;;;;;;;1.70;1.00;;;;;;;21.36;54.45;99244.40;116789;1189;22820;-60
2022/09/16 02:02:15;;;;;;;1.90;1.00;;;;;;;21.38;55.15;99239.42;116966;1185;23596;-72
2022/09/16 02:04:49;;;;;;;1.70;1.20;;;;;;;21.43;54.67;99233.88;116823;1189;22931;-73
2022/09/16 02:07:17;;;;;;;3.70;1.30;;;;;;;21.49;54.45;99231.84;116888;1189;22932;-74
2022/09/16 02:09:47;;;;;;;2.40;1.00;;;;;;;21.53;54.58;99231.32;116943;1184;23081;-60
2022/09/16 02:12:19;;;;;;;2.30;1.30;;;;;;;21.57;54.41;99226.48;116989;1188;22080;-59
2022/09/16 02:14:47;;;;;;;3.10;1.20;;;;;;;21.59;54.88;99227.52;116678;1189;22627;-73
2022/09/16 02:17:15;;;;;;;4.30;1.40;;;;;;;21.60;54.77;99230.14;116988;1188;23560;-59
2022/09/16 02:19:47;;;;;;;5.30;1.70;;;;;;;21.59;54.73;99231.44;116899;1189;23656;-73
2022/09/16 02:22:18;;;;;;;3.90;1.50;;;;;;;21.59;54.54;99234.46;116700;1190;21883;-73
2022/09/16 02:24:45;;;;;;;5.50;1.00;;;;;;;21.61;54.27;99233.11;116891;1185;22928;-59
2022/09/16 02:27:15;;;;;;;3.10;1.20;;;;;;;21.63;54.17;99229.19;118957;1188;22252;-60
2022/09/16 02:29:45;;;;;;;2.60;1.30;;;;;;;21.65;54.16;99230.47;118844;1188;21785;-67
2022/09/16 02:32:12;;;;;;;5.40;1.70;;;;;;;21.66;54.20;99234.00;117679;1188;23405;-74
2022/09/16 02:34:41;;;;;;;2.10;1.20;;;;;;;21.63;54.20;99229.35;116768;1185;22431;-59
2022/09/16 02:37:21;;;;;;;2.10;1.40;;;;;;;21.62;54.13;99230.75;118991;1187;21798;-69
2022/09/16 02:39:49;;;;;;;5.40;1.30;;;;;;;21.58;54.22;99219.04;118874;1187;21847;-69
2022/09/16 02:42:16;;;;;;;4.10;1.30;;;;;;;21.54;54.34;99216.26;117316;1189;21861;-60
2022/09/16 02:44:43;;;;;;;4.50;1.40;;;;;;;21.55;54.11;99217.11;116914;1185;22928;-60
2022/09/16 02:47:26;;;;;;;2.90;1.00;;;;;;;21.57;53.95;99226.09;116780;1188;23569;-59
2022/09/16 02:49:55;;;;;;;2.90;0.90;;;;;;;21.58;53.95;99227.12;116970;1188;23570;-73
2022/09/16 02:52:48;;;;;;;3.10;1.10;;;;;;;21.58;53.91;99224.39;116997;1188;21886;-73
2022/09/16 02:55:23;;;;;;;4.10;1.20;;;;;;;21.57;53.84;99221.81;116816;1188;22932;-60
2022/09/16 02:57:50;;;;;;;4.70;1.30;;;;;;;21.55;53.87;99222.48;116927;1188;23174;-60
2022/09/16 03:00:19;;;;;;;20.70;2.00;;;;;;;21.52;53.90;99220.16;116889;1188;22328;-74
2022/09/16 03:02:46;;;;;;;12.10;1.80;;;;;;;21.50;53.88;99220.36;116905;1185;23001;-60
2022/09/16 03:05:13;;;;;;;2.40;1.10;;;;;;;21.48;53.89;99225.45;116724;1186;21856;-60
2022/09/16 03:07:40;;;;;;;2.10;1.20;;;;;;;21.48;53.95;99227.27;116909;1190;22620;-59
2022/09/16 03:10:14;;;;;;;4.10;1.40;;;;;;;21.48;53.90;99221.92;116770;1189;22808;-59
2022/09/16 03:12:44;;;;;;;1.90;1.10;;;;;;;21.49;53.85;99210.81;116916;1188;21858;-59
2022/09/16 03:15:30;;;;;;;6.10;1.30;;;;;;;21.50;53.87;99208.04;116924;1187;22712;-74
2022/09/16 03:18:04;;;;;;;4.30;1.40;;;;;;;21.48;53.98;99209.63;117045;1188;22642;-74
2022/09/16 03:20:53;;;;;;;2.70;1.30;;;;;;;21.46;54.08;99207.79;116936;1188;22936;-58
2022/09/16 03:23:46;;;;;;;6.10;1.50;;;;;;;21.46;53.94;99209.59;117084;1185;24271;-70
2022/09/16 03:26:29;;;;;;;4.70;1.20;;;;;;;21.46;53.90;99211.16;116888;1189;21898;-71
2022/09/16 03:29:24;;;;;;;3.50;1.30;;;;;;;21.46;54.06;99214.74;116878;1185;23573;-71
2022/09/16 03:32:31;;;;;;;2.80;1.40;;;;;;;21.47;54.05;99218.39;116943;1188;21976;-70
2022/09/16 03:35:05;;;;;;;4.00;1.00;;;;;;;21.49;54.28;99212.61;116586;1187;22273;-71
2022/09/16 03:37:34;;;;;;;4.70;1.30;;;;;;;21.48;54.53;99208.16;118767;1190;21826;-60
2022/09/16 03:40:04;;;;;;;2.90;1.10;;;;;;;21.49;54.56;99202.61;118771;1188;21793;-60
2022/09/16 03:42:31;;;;;;;3.00;1.30;;;;;;;21.52;55.03;99203.92;118955;1186;21819;-71
2022/09/16 03:44:58;;;;;;;3.00;1.10;;;;;;;21.59;54.79;99203.27;118785;1185;21866;-59
2022/09/16 03:47:25;;;;;;;3.50;1.10;;;;;;;21.65;54.55;99200.98;116845;1188;23914;-60
2022/09/16 03:49:52;;;;;;;3.80;1.20;;;;;;;21.70;54.97;99197.79;116782;1188;23561;-70
2022/09/16 03:52:19;;;;;;;2.50;1.20;;;;;;;21.73;54.87;99200.40;116864;1188;23086;-70
2022/09/16 03:54:47;;;;;;;2.80;1.30;;;;;;;21.80;54.54;99198.80;117015;1188;23473;-70
2022/09/16 03:57:13;;;;;;;7.30;1.60;;;;;;;21.84;54.32;99203.31;116950;1188;21861;-70
2022/09/16 03:59:40;;;;;;;3.50;1.10;;;;;;;21.87;54.43;99201.52;116937;1188;21920;-70
2022/09/16 04:02:07;;;;;;;3.40;1.30;;;;;;;21.89;54.56;99200.13;116946;1185;21964;-59
2022/09/16 04:04:35;;;;;;;5.30;1.10;;;;;;;21.86;54.66;99195.83;116953;1185;24194;-70
2022/09/16 04:07:02;;;;;;;2.20;0.90;;;;;;;21.87;54.56;99198.60;116952;1188;21848;-70
2022/09/16 04:09:29;;;;;;;2.90;1.50;;;;;;;21.87;54.68;99195.44;116988;1188;23599;-59
2022/09/16 04:11:56;;;;;;;1.70;1.10;;;;;;;21.86;54.53;99197.95;116950;1188;24165;-59
2022/09/16 04:14:23;;;;;;;2.50;1.00;;;;;;;21.87;54.67;99195.23;117004;1188;22096;-70
2022/09/16 04:16:50;;;;;;;3.00;1.10;;;;;;;21.89;54.75;99196.69;116922;1188;23457;-70
2022/09/16 04:19:17;;;;;;;3.50;1.20;;;;;;;21.91;54.55;99194.73;116973;1188;22058;-70
2022/09/16 04:21:44;;;;;;;3.30;1.30;;;;;;;21.94;54.65;99193.80;116932;1189;22858;-69
2022/09/16 04:24:12;;;;;;;5.10;0.90;;;;;;;21.97;54.78;99194.64;116947;1184;22622;-59
2022/09/16 04:26:40;;;;;;;3.40;1.20;;;;;;;22.02;54.53;99192.10;117025;1188;21958;-65
2022/09/16 04:29:08;;;;;;;3.20;1.30;;;;;;;22.07;54.36;99191.86;116995;1188;22041;-70
2022/09/16 04:31:34;;;;;;;3.00;1.10;;;;;;;22.13;54.40;99196.58;116978;1187;23274;-70
2022/09/16 04:34:02;;;;;;;4.80;1.30;;;;;;;22.19;54.44;99197.16;117018;1188;22817;-71
2022/09/16 04:36:29;;;;;;;4.00;1.20;;;;;;;22.24;54.29;99189.44;116893;1189;21870;-71
2022/09/16 04:38:56;;;;;;;3.40;1.30;;;;;;;22.31;54.41;99186.83;116870;1189;23583;-71
2022/09/16 04:41:24;;;;;;;2.60;1.00;;;;;;;22.37;54.21;99182.52;117039;1188;23611;-72
2022/09/16 04:43:52;;;;;;;2.40;1.30;;;;;;;22.43;54.28;99177.59;116951;1188;22627;-72
2022/09/16 04:46:19;;;;;;;3.10;1.30;;;;;;;22.50;54.45;99184.36;116910;1187;22614;-72
2022/09/16 04:48:47;;;;;;;5.60;1.60;;;;;;;22.58;54.37;99185.38;116961;1188;21888;-72
2022/09/16 04:51:14;;;;;;;3.90;1.60;;;;;;;22.65;54.46;99182.30;117005;1187;21991;-70
2022/09/16 04:53:45;;;;;;;2.80;1.20;;;;;;;22.75;53.98;99189.92;117027;1188;21927;-71
2022/09/16 04:56:17;;;;;;;5.10;1.20;;;;;;;22.82;53.97;99187.89;116966;1188;23723;-73
2022/09/16 04:58:46;;;;;;;1.60;1.00;;;;;;;22.88;53.80;99186.15;117042;1185;22946;-72
2022/09/16 05:01:15;;;;;;;5.70;1.20;;;;;;;22.93;53.77;99188.45;117043;1188;21963;-71
2022/09/16 05:03:43;;;;;;;3.70;1.40;;;;;;;22.97;53.73;99196.49;117010;1188;22073;-72
2022/09/16 05:06:12;;;;;;;5.40;1.30;;;;;;;23.03;53.71;99199.59;117020;1188;22695;-72
2022/09/16 05:08:47;;;;;;;3.90;1.40;;;;;;;23.09;53.59;99187.30;116948;1188;21973;-72
2022/09/16 05:11:18;;;;;;;4.90;1.50;;;;;;;23.14;53.73;99188.60;117011;1188;22360;-71
2022/09/16 05:13:45;;;;;;;;;;;;;;;23.23;53.67;99194.92;117060;1184;22689;-72
2022/09/16 05:16:13;;;;;;;3.10;1.50;;;;;;;23.32;53.65;99201.17;116977;1188;21868;-71
2022/09/16 05:18:41;;;;;;;4.80;1.50;;;;;;;23.42;53.42;99195.83;117109;1188;23561;-72
2022/09/16 05:21:11;;;;;;;5.00;1.60;;;;;;;23.53;53.28;99190.45;117022;1188;22826;-70
2022/09/16 05:23:39;;;;;;;8.00;1.80;;;;;;;23.64;53.22;99195.73;117023;1188;21907;-72
2022/09/16 05:26:23;;;;;;;4.90;1.50;;;;;;;23.78;52.94;99204.43;117004;1188;21862;-72
2022/09/16 05:28:50;;;;;;;5.10;1.80;;;;;;;23.90;52.97;99202.29;116969;1188;21862;-71
2022/09/16 05:31:24;;;;;;;3.80;1.50;;;;;;;24.00;52.99;99199.87;116977;1187;21988;-72
2022/09/16 05:34:13;;;;;;;6.80;1.90;;;;;;;24.12;53.03;99203.33;117001;1185;22938;-72
2022/09/16 05:36:42;;;;;;;3.70;1.70;;;;;;;24.24;52.90;99214.48;116952;1185;21865;-71
2022/09/16 05:39:13;;;;;;;6.30;1.90;;;;;;;24.32;52.69;99207.77;117015;1186;21958;-72
2022/09/16 05:41:51;;;;;;;;;;;;;;;24.41;52.53;99200.06;117015;1188;21843;-72
2022/09/16 05:44:18;;;;;;;4.30;1.80;;;;;;;24.46;52.41;99192.41;116984;1185;23550;-72
2022/09/16 05:46:46;;;;;;;7.00;2.30;;;;;;;24.47;52.51;99198.21;116988;1188;21893;-72
2022/09/16 05:49:19;;;;;;;11.90;2.20;;;;;;;24.46;52.74;99198.35;117044;1188;22922;-71
2022/09/16 05:51:47;;;;;;;7.20;1.80;;;;;;;24.43;52.79;99194.16;117059;1188;22033;-72
2022/09/16 05:54:17;;;;;;;11.10;1.90;;;;;;;24.41;52.54;99190.40;117009;1188;22857;-61
2022/09/16 05:56:44;;;;;;;7.70;1.90;;;;;;;24.41;52.58;99194.86;117722;1179;23632;-60
2022/09/16 05:59:12;;;;;;;7.90;2.00;;;;;;;24.43;52.51;99195.52;116991;1186;22868;-61
2022/09/16 06:01:39;;;;;;;4.80;1.90;;;;;;;24.47;52.60;99197.52;117095;1188;21876;-61
2022/09/16 06:04:10;;;;;;;3.40;1.70;;;;;;;24.54;52.44;99192.80;117064;1188;22918;-60
2022/09/16 06:06:44;;;;;;;8.50;2.30;;;;;;;24.64;52.57;99196.33;117010;1188;21850;-61
2022/09/16 06:09:18;;;;;;;4.90;2.00;;;;;;;24.82;52.39;99199.98;117084;1188;21858;-60
2022/09/16 06:11:47;;;;;;;5.00;2.40;;;;;;;25.03;52.22;99199.20;116883;1188;21860;-60
2022/09/16 06:14:15;;;;;;;3.50;1.60;;;;;;;25.24;52.02;99198.16;116996;1187;22845;-72
2022/09/16 06:16:42;;;;;;;4.70;1.80;;;;;;;25.44;51.76;99201.55;116999;1188;23701;-61
2022/09/16 06:19:12;;;;;;;4.00;1.60;;;;;;;25.60;51.09;99197.66;116948;1188;22722;-60
2022/09/16 06:21:39;;;;;;;7.40;2.10;;;;;;;25.81;51.20;99197.89;117270;1187;22112;-61
2022/09/16 06:24:09;;;;;;;8.40;2.50;;;;;;;26.02;50.90;99193.96;117033;1187;22946;-60
2022/09/16 06:26:38;;;;;;;10.50;2.30;;;;;;;26.20;50.68;99200.14;117061;1185;23560;-60
2022/09/16 06:29:05;;;;;;;7.50;2.60;;;;;;;26.39;50.61;99197.98;117039;1187;22932;-60
2022/09/16 06:31:32;;;;;;;5.10;2.20;;;;;;;26.59;50.53;99194.02;117110;1188;22630;-61
2022/09/16 06:33:59;;;;;;;4.70;2.00;;;;;;;26.82;50.22;99190.06;116986;1188;22624;-60
2022/09/16 06:36:28;;;;;;;5.40;2.20;;;;;;;26.94;49.55;99191.23;116925;1184;21909;-60
2022/09/16 06:38:55;;;;;;;6.20;2.30;;;;;;;26.97;49.35;99195.19;117005;1188;22632;-61
2022/09/16 06:41:22;;;;;;;8.10;2.30;;;;;;;27.02;49.22;99197.09;117012;1187;21961;-60
2022/09/16 06:43:50;;;;;;;4.20;2.00;;;;;;;27.08;49.13;99200.66;117018;1185;23558;-60
2022/09/16 06:46:22;;;;;;;5.80;2.00;;;;;;;27.13;48.98;99205.51;116900;1184;24018;-60
2022/09/16 06:48:51;;;;;;;5.80;2.20;;;;;;;27.13;48.99;99205.91;117030;1188;21858;-61
2022/09/16 06:54:22;;;;;;;9.80;2.80;;;;;;;27.07;48.44;99219.45;116961;1188;23692;-61
2022/09/16 06:56:50;;;;;;;6.40;2.40;;;;;;;27.04;48.22;99222.59;116808;1189;22211;-62
2022/09/16 06:59:16;;;;;;;11.70;2.40;;;;;;;27.01;48.31;99229.15;116635;1189;22629;-62
2022/09/16 07:01:44;;;;;;;15.10;2.50;;;;;;;27.00;48.26;99234.29;116857;1189;21867;-62
2022/09/16 07:04:12;;;;;;;7.40;2.10;;;;;;;27.00;47.97;99240.84;116923;1188;22555;-62
2022/09/16 07:06:39;;;;;;;3.60;1.90;;;;;;;26.99;47.97;99241.80;116803;1188;21847;-62
2022/09/16 07:09:26;;;;;;;7.50;2.30;;;;;;;27.02;48.21;99244.27;116631;1188;23452;-75
2022/09/16 07:11:54;;;;;;;7.10;2.90;;;;;;;27.09;47.83;99245.73;116817;1186;22947;-78
2022/09/16 07:14:21;;;;;;;7.30;2.60;;;;;;;27.18;47.84;99245.16;116832;1186;22757;-78
2022/09/16 07:16:48;;;;;;;8.30;2.10;;;;;;;27.26;47.84;99246.45;116810;1189;21867;-77
2022/09/16 07:19:15;;;;;;;10.10;2.60;;;;;;;27.38;47.40;99242.75;116765;1187;21898;-78
2022/09/16 07:21:42;;;;;;;5.20;2.00;;;;;;;27.47;47.47;99241.92;118857;1188;21893;-77
2022/09/16 07:24:11;;;;;;;7.20;2.30;;;;;;;27.51;47.17;99239.24;118909;1185;21801;-77
2022/09/16 07:26:39;;;;;;;9.10;2.20;;;;;;;27.58;47.17;99238.86;118891;1185;21834;-78
2022/09/16 07:29:10;;;;;;;5.60;1.90;;;;;;;27.67;47.19;99244.45;117515;1188;21848;-76
2022/09/16 07:31:37;;;;;;;5.70;2.40;;;;;;;27.72;47.10;99250.58;116868;1186;22949;-77
2022/09/16 07:34:05;;;;;;;3.10;1.70;;;;;;;27.75;46.98;99247.73;116932;1184;23622;-76
2022/09/16 07:36:34;;;;;;;7.80;2.30;;;;;;;27.79;46.73;99249.19;117141;1187;21870;-77
2022/09/16 07:39:02;;;;;;;6.40;1.80;;;;;;;27.81;46.79;99252.71;116812;1186;23548;-78
2022/09/16 07:41:33;;;;;;;5.40;2.30;;;;;;;27.85;46.78;99255.30;116849;1188;23666;-79
2022/09/16 07:44:00;;;;;;;4.70;2.20;;;;;;;27.91;46.37;99260.31;116796;1191;21851;-75
2022/09/16 07:46:29;;;;;;;4.20;1.90;;;;;;;27.98;46.50;99267.70;116825;1191;22839;-78
2022/09/16 07:48:57;;;;;;;5.50;2.30;;;;;;;28.05;46.49;99267.88;116829;1188;21892;-77
2022/09/16 07:51:24;;;;;;;7.20;2.50;;;;;;;28.14;46.06;99265.05;116859;1189;22792;-78
2022/09/16 07:53:54;;;;;;;4.40;2.20;;;;;;;28.24;46.00;99264.05;116966;1187;23477;-63
2022/09/16 07:56:24;;;;;;;5.80;1.70;;;;;;;28.32;46.19;99264.30;116891;1189;22658;-63
2022/09/16 07:58:52;;;;;;;4.10;1.60;;;;;;;28.32;45.43;99261.36;117025;1188;21852;-78
2022/09/16 08:01:19;;;;;;;4.20;1.60;;;;;;;28.28;45.41;99260.73;116888;1188;21847;-78
2022/09/16 08:03:46;;;;;;;3.00;1.50;;;;;;;28.24;45.37;99258.48;116930;1186;23593;-78
2022/09/16 08:06:21;;;;;;;5.20;1.90;;;;;;;28.20;45.46;99258.70;116768;1189;21865;-76
2022/09/16 08:08:54;;;;;;;4.60;1.70;;;;;;;28.13;45.56;99261.57;117044;1188;23451;-75
2022/09/16 08:11:21;;;;;;;3.80;1.50;;;;;;;28.03;44.97;99259.34;117009;1186;21850;-75
2022/09/16 08:13:48;;;;;;;4.50;1.60;;;;;;;27.94;45.12;99257.13;116975;1188;21926;-78
2022/09/16 08:16:17;;;;;;;5.10;1.50;;;;;;;27.88;45.52;99259.75;116890;1186;23454;-79
2022/09/16 08:18:46;;;;;;;7.00;1.60;;;;;;;27.85;45.50;99254.77;116901;1188;22902;-78
2022/09/16 08:21:15;;;;;;;5.50;1.40;;;;;;;27.83;45.59;99253.77;116983;1186;22780;-79
2022/09/16 08:23:44;;;;;;;3.70;1.50;;;;;;;27.81;45.69;99257.39;116898;1187;22629;-81
2022/09/16 08:26:14;;;;;;;5.80;1.90;;;;;;;27.81;45.69;99260.18;117068;1188;22798;-80
2022/09/16 08:28:42;;;;;;;5.90;1.60;;;;;;;27.81;45.89;99262.66;116802;1188;22889;-77
2022/09/16 08:31:31;;;;;;;4.20;1.20;;;;;;;27.83;45.47;99267.45;116792;1186;23047;-80
2022/09/16 08:33:58;;;;;;;18.60;3.40;;;;;;;27.87;45.26;99262.48;116941;1186;23486;-63
2022/09/16 08:36:26;;;;;;;6.90;1.50;;;;;;;27.94;45.49;99259.55;116939;1186;22509;-65
2022/09/16 08:38:55;;;;;;;4.90;1.40;;;;;;;28.04;45.56;99253.19;116940;1188;22872;-63
2022/09/16 08:41:46;;;;;;;4.40;1.40;;;;;;;28.13;45.42;99250.94;117986;1188;21861;-63
2022/09/16 08:44:32;;;;;;;16.40;2.30;;;;;;;28.18;45.18;99251.69;116901;1188;21876;-75
2022/09/16 08:47:01;;;;;;;3.50;1.10;;;;;;;28.24;45.05;99254.83;116965;1187;21867;-63
2022/09/16 08:49:39;;;;;;;4.80;1.60;;;;;;;28.33;44.73;99255.10;117037;1186;22942;-80
2022/09/16 08:52:21;;;;;;;4.70;1.30;;;;;;;28.46;44.66;99256.35;116809;1186;23423;-63
2022/09/16 08:54:52;;;;;;;2.10;1.10;;;;;;;28.62;44.70;99258.64;117063;1188;22945;-63
2022/09/16 08:57:21;;;;;;;3.90;1.00;;;;;;;28.73;44.76;99256.95;117007;1192;21843;-77
2022/09/16 08:59:53;;;;;;;4.80;1.50;;;;;;;28.81;44.18;99258.13;116720;1191;21859;-77
2022/09/16 09:02:36;;;;;;;4.10;1.30;;;;;;;28.84;43.67;99255.60;116909;1188;21848;-63
2022/09/16 09:05:25;;;;;;;4.20;1.20;;;;;;;28.85;43.36;99258.93;116982;1189;21900;-79
2022/09/16 09:07:53;;;;;;;3.30;1.10;;;;;;;28.86;43.67;99264.01;117006;1191;22895;-78
2022/09/16 09:10:27;;;;;;;5.30;1.50;;;;;;;28.90;44.06;99264.50;116910;1186;21870;-63
2022/09/16 09:13:11;;;;;;;3.50;1.30;;;;;;;28.92;43.70;99267.41;117007;1188;21875;-78
2022/09/16 09:15:51;;;;;;;2.80;1.20;;;;;;;28.87;43.16;99265.32;116912;1185;23002;-76
2022/09/16 09:18:37;;;;;;;2.00;0.80;;;;;;;28.78;43.08;99267.25;117010;1185;24212;-64
2022/09/16 09:21:25;;;;;;;2.10;1.00;;;;;;;28.71;43.16;99264.70;116862;1186;22631;-78
2022/09/16 09:24:23;;;;;;;4.40;1.70;;;;;;;28.68;43.70;99260.88;116939;1185;23551;-78
2022/09/16 09:26:51;;;;;;;5.10;1.20;;;;;;;28.70;43.59;99262.59;116841;1186;22998;-77
2022/09/16 09:29:37;;;;;;;4.80;1.40;;;;;;;28.72;43.61;99262.39;116990;1188;22571;-64
2022/09/16 09:32:38;;;;;;;4.20;1.50;;;;;;;28.73;43.38;99265.88;116976;1186;22703;-63
2022/09/16 09:35:40;;;;;;;3.30;1.00;;;;;;;28.72;43.12;99270.15;116970;1188;21857;-75
2022/09/16 09:38:16;;;;;;;18.70;2.00;;;;;;;28.71;43.28;99270.45;116823;1188;21867;-71
2022/09/16 09:40:55;;;;;;;3.80;0.90;;;;;;;28.69;43.20;99273.38;116976;1187;22926;-72
2022/09/16 09:43:37;;;;;;;4.40;1.40;;;;;;;28.67;43.31;99277.45;117582;1186;21852;-64
2022/09/16 09:46:25;;;;;;;2.40;1.10;;;;;;;28.64;43.25;99279.88;116895;1186;21864;-73
2022/09/16 09:49:14;;;;;;;3.40;0.90;;;;;;;28.62;43.56;99280.63;117293;1186;22924;-65
2022/09/16 09:52:09;;;;;;;19.00;2.20;;;;;;;28.62;43.74;99278.81;116839;1185;22656;-64
2022/09/16 09:54:37;;;;;;;4.00;1.20;;;;;;;28.61;43.64;99279.60;116999;1189;21859;-64
2022/09/16 09:57:36;;;;;;;6.20;1.20;;;;;;;28.66;43.55;99282.21;116925;1186;22991;-65
2022/09/16 10:00:13;;;;;;;3.50;1.00;;;;;;;28.81;43.70;99280.98;116813;1186;23651;-75
2022/09/16 10:02:43;;;;;;;5.20;0.90;;;;;;;29.03;42.93;99279.92;116860;1186;21861;-65
2022/09/16 10:05:24;;;;;;;4.10;1.00;;;;;;;29.28;42.80;99284.11;116837;1191;21858;-74
2022/09/16 10:07:52;;;;;;;5.40;1.70;;;;;;;29.51;42.29;99280.36;116855;1184;22973;-64
2022/09/16 10:10:23;;;;;;;3.00;0.90;;;;;;;29.69;41.76;99288.05;116953;1186;22917;-74
2022/09/16 10:12:50;;;;;;;2.40;1.10;;;;;;;29.75;41.52;99291.71;116954;1188;22654;-65
2022/09/16 10:15:24;;;;;;;3.00;0.90;;;;;;;29.77;41.78;99294.86;116989;1189;23589;-75
2022/09/16 10:18:25;;;;;;;10.40;1.40;;;;;;;29.76;41.66;99297.21;116751;1189;21918;-75
2022/09/16 10:21:05;;;;;;;5.40;0.80;;;;;;;29.67;41.16;99297.40;116785;1189;21871;-64
2022/09/16 10:23:33;;;;;;;4.70;1.70;;;;;;;29.57;41.56;99300.19;116807;1192;21865;-74
2022/09/16 10:26:18;;;;;;;2.20;1.20;;;;;;;29.52;41.64;99302.52;116805;1186;21967;-64
2022/09/16 10:29:00;;;;;;;17.30;1.90;;;;;;;29.50;41.71;99302.54;116768;1186;24184;-74
2022/09/16 10:31:34;;;;;;;3.20;0.80;;;;;;;29.51;41.88;99309.12;116714;1187;22964;-64
2022/09/16 10:34:02;;;;;;;4.10;1.00;;;;;;;29.59;41.58;99306.95;116645;1189;21927;-64
2022/09/16 10:36:33;;;;;;;1.80;0.90;;;;;;;29.81;41.92;99303.30;116790;1192;21987;-63
2022/09/16 10:39:01;;;;;;;3.00;1.10;;;;;;;30.09;41.72;99297.70;116845;1189;23482;-72
2022/09/16 10:41:33;;;;;;;4.60;1.10;;;;;;;30.42;41.81;99294.22;116775;1191;23486;-65
2022/09/16 10:44:21;;;;;;;3.00;0.70;;;;;;;30.82;41.10;99285.36;116714;1186;22975;-75
2022/09/16 10:46:59;;;;;;;4.70;0.80;;;;;;;31.25;40.71;99284.09;116694;1192;21880;-65
2022/09/16 10:49:51;;;;;;;2.30;0.80;;;;;;;31.61;39.97;99282.77;116887;1186;23560;-73
2022/09/16 10:52:23;;;;;;;1.00;0.60;;;;;;;31.90;38.39;99284.27;116828;1189;22040;-71
2022/09/16 10:54:51;;;;;;;8.90;1.10;;;;;;;32.16;38.54;99289.19;116935;1186;22939;-72
2022/09/16 10:57:24;;;;;;;3.80;1.10;;;;;;;32.34;38.89;99291.46;116947;1189;22060;-65
2022/09/16 10:59:59;;;;;;;5.40;1.00;;;;;;;32.57;38.76;99292.02;117135;1188;21907;-65
2022/09/16 11:02:54;;;;;;;2.30;0.90;;;;;;;32.82;38.09;99294.44;116881;1185;22632;-64
2022/09/16 11:05:48;;;;;;;2.70;0.90;;;;;;;33.03;38.14;99293.42;116915;1188;22935;-72
2022/09/16 11:08:42;;;;;;;1.90;0.60;;;;;;;33.18;36.73;99297.23;116987;1189;21922;-73
2022/09/16 11:11:19;;;;;;;3.00;0.60;;;;;;;33.21;36.12;99304.14;116981;1185;22937;-76
2022/09/16 11:14:04;;;;;;;22.60;2.10;;;;;;;33.23;36.97;99300.48;117047;1188;21860;-64
2022/09/16 11:16:47;;;;;;;3.20;0.70;;;;;;;33.27;35.96;99300.73;117070;1189;21870;-76
2022/09/16 11:19:27;;;;;;;4.20;0.80;;;;;;;33.34;36.18;99311.52;117082;1188;23020;-77
2022/09/16 11:22:04;;;;;;;7.70;0.80;;;;;;;33.30;35.83;99313.50;117161;1189;21864;-76
2022/09/16 11:25:06;;;;;;;5.00;0.80;;;;;;;33.22;35.70;99310.39;117113;1186;21891;-65
2022/09/16 11:27:52;;;;;;;3.30;0.90;;;;;;;33.01;35.37;99316.95;116866;1188;21866;-78
2022/09/16 11:30:21;;;;;;;4.50;1.10;;;;;;;32.83;35.74;99318.75;117022;1182;22902;-77
2022/09/16 11:33:26;;;;;;;2.10;0.70;;;;;;;32.78;35.53;99322.05;116843;1185;21870;-64
2022/09/16 11:36:29;;;;;;;2.70;0.80;;;;;;;32.84;36.33;99318.48;116924;1188;21860;-79
2022/09/16 11:39:14;;;;;;;6.30;0.90;;;;;;;33.01;36.01;99312.66;116829;1188;22958;-74
2022/09/16 11:42:00;;;;;;;2.20;0.90;;;;;;;33.10;35.55;99314.38;116920;1186;21851;-64
2022/09/16 11:45:05;;;;;;;1.00;0.50;;;;;;;33.06;35.40;99319.79;116895;1188;22948;-77
2022/09/16 11:47:47;;;;;;;3.10;1.00;;;;;;;32.76;35.79;99322.88;116938;1186;21861;-79
2022/09/16 11:50:48;;;;;;;1.80;0.80;;;;;;;32.51;36.29;99321.26;116888;1186;21850;-75
2022/09/16 11:53:37;;;;;;;2.60;0.90;;;;;;;32.35;35.62;99323.52;116833;1184;21932;-80
2022/09/16 11:56:21;;;;;;;12.50;1.10;;;;;;;32.37;36.69;99325.27;116790;1189;22461;-77
2022/09/16 11:59:02;;;;;;;4.10;0.90;;;;;;;32.38;36.29;99329.92;116872;1186;21876;-78